sensor_id;sensor_type;location;lat;lon;timestamp;pressure;altitude;pressure_sealevel;temperature;humidity
49102;BME280;34913;47.520;19.186;2023-04-16T00:00:38;99573.50;;;6.99;100.00
49102;BME280;34913;47.520;19.186;2023-04-16T00:03:03;99570.69;;;6.89;100.00
49102;BME280;34913;47.520;19.186;2023-04-16T00:05:29;99578.47;;;6.80;100.00
49102;BME280;34913;47.520;19.186;2023-04-16T00:07:54;99581.66;;;6.72;100.00
49102;BME280;34913;47.520;19.186;2023-04-16T00:10:20;99582.69;;;6.69;100.00
49102;BME280;34913;47.520;19.186;2023-04-16T00:12:45;99577.31;;;6.71;100.00
49102;BME280;34913;47.520;19.186;2023-04-16T00:15:11;99579.50;;;6.77;100.00
49102;BME280;34913;47.520;19.186;2023-04-16T00:17:36;99578.06;;;6.73;100.00
49102;BME280;34913;47.520;19.186;2023-04-16T00:20:02;99577.50;;;6.81;100.00
49102;BME280;34913;47.520;19.186;2023-04-16T00:22:28;99575.59;;;6.83;100.00
49102;BME280;34913;47.520;19.186;2023-04-16T00:24:53;99582.78;;;6.81;100.00
49102;BME280;34913;47.520;19.186;2023-04-16T00:27:19;99587.31;;;6.79;100.00
49102;BME280;34913;47.520;19.186;2023-04-16T00:29:44;99579.38;;;6.79;100.00
49102;BME280;34913;47.520;19.186;2023-04-16T00:32:10;99584.78;;;6.77;100.00
49102;BME280;34913;47.520;19.186;2023-04-16T00:34:35;99579.94;;;6.71;100.00
49102;BME280;34913;47.520;19.186;2023-04-16T00:37:01;99581.03;;;6.68;100.00
49102;BME280;34913;47.520;19.186;2023-04-16T00:39:26;99582.50;;;6.72;100.00
49102;BME280;34913;47.520;19.186;2023-04-16T00:41:51;99586.28;;;6.68;100.00
49102;BME280;34913;47.520;19.186;2023-04-16T00:44:17;99584.22;;;6.61;100.00
49102;BME280;34913;47.520;19.186;2023-04-16T00:46:43;99583.91;;;6.65;100.00
49102;BME280;34913;47.520;19.186;2023-04-16T00:49:08;99583.53;;;6.70;100.00
49102;BME280;34913;47.520;19.186;2023-04-16T00:51:34;99583.72;;;6.80;100.00
49102;BME280;34913;47.520;19.186;2023-04-16T00:54:00;99585.91;;;6.86;100.00
49102;BME280;34913;47.520;19.186;2023-04-16T00:56:27;99572.50;;;6.89;100.00
49102;BME280;34913;47.520;19.186;2023-04-16T00:58:53;99581.69;;;6.83;100.00
49102;BME280;34913;47.520;19.186;2023-04-16T01:01:19;99571.88;;;6.85;100.00
49102;BME280;34913;47.520;19.186;2023-04-16T01:03:46;99585.50;;;6.79;100.00
49102;BME280;34913;47.520;19.186;2023-04-16T01:06:12;99580.81;;;6.71;100.00
49102;BME280;34913;47.520;19.186;2023-04-16T01:08:38;99579.50;;;6.77;100.00
49102;BME280;34913;47.520;19.186;2023-04-16T01:11:04;99574.75;;;6.82;100.00
49102;BME280;34913;47.520;19.186;2023-04-16T01:13:29;99578.63;;;6.89;100.00
49102;BME280;34913;47.520;19.186;2023-04-16T01:15:55;99581.47;;;6.86;100.00
49102;BME280;34913;47.520;19.186;2023-04-16T01:18:22;99587.94;;;6.82;100.00
49102;BME280;34913;47.520;19.186;2023-04-16T01:20:49;99584.75;;;6.66;100.00
49102;BME280;34913;47.520;19.186;2023-04-16T01:23:14;99587.56;;;6.63;100.00
49102;BME280;34913;47.520;19.186;2023-04-16T01:25:42;99589.28;;;6.64;100.00
49102;BME280;34913;47.520;19.186;2023-04-16T01:28:08;99578.47;;;6.56;100.00
49102;BME280;34913;47.520;19.186;2023-04-16T01:30:33;99587.13;;;6.45;100.00
49102;BME280;34913;47.520;19.186;2023-04-16T01:32:59;99582.81;;;6.44;100.00
49102;BME280;34913;47.520;19.186;2023-04-16T01:35:25;99600.00;;;6.50;100.00
49102;BME280;34913;47.520;19.186;2023-04-16T01:37:51;99594.84;;;6.48;100.00
49102;BME280;34913;47.520;19.186;2023-04-16T01:40:17;99593.47;;;6.42;100.00
49102;BME280;34913;47.520;19.186;2023-04-16T01:42:43;99591.50;;;6.33;100.00
49102;BME280;34913;47.520;19.186;2023-04-16T01:45:09;99598.28;;;6.25;100.00
49102;BME280;34913;47.520;19.186;2023-04-16T01:47:35;99592.78;;;6.15;100.00
49102;BME280;34913;47.520;19.186;2023-04-16T01:50:00;99591.75;;;6.05;100.00
49102;BME280;34913;47.520;19.186;2023-04-16T01:52:26;99594.81;;;5.99;100.00
49102;BME280;34913;47.520;19.186;2023-04-16T01:54:52;99594.09;;;5.97;100.00
49102;BME280;34913;47.520;19.186;2023-04-16T01:57:17;99593.75;;;5.88;100.00
49102;BME280;34913;47.520;19.186;2023-04-16T01:59:42;99588.72;;;5.85;100.00
49102;BME280;34913;47.520;19.186;2023-04-16T02:02:12;99591.75;;;5.92;100.00
49102;BME280;34913;47.520;19.186;2023-04-16T02:04:40;99596.63;;;5.98;100.00
49102;BME280;34913;47.520;19.186;2023-04-16T02:07:06;99607.03;;;6.00;100.00
49102;BME280;34913;47.520;19.186;2023-04-16T02:09:36;99601.34;;;6.06;100.00
49102;BME280;34913;47.520;19.186;2023-04-16T02:12:02;99614.63;;;6.04;100.00
49102;BME280;34913;47.520;19.186;2023-04-16T02:14:29;99602.59;;;6.00;100.00
49102;BME280;34913;47.520;19.186;2023-04-16T02:16:54;99608.31;;;5.94;100.00
49102;BME280;34913;47.520;19.186;2023-04-16T02:19:20;99619.59;;;5.96;100.00
49102;BME280;34913;47.520;19.186;2023-04-16T02:21:46;99614.94;;;6.00;100.00
49102;BME280;34913;47.520;19.186;2023-04-16T02:24:12;99612.09;;;6.03;100.00
49102;BME280;34913;47.520;19.186;2023-04-16T02:26:37;99611.88;;;6.06;100.00
49102;BME280;34913;47.520;19.186;2023-04-16T02:29:02;99602.31;;;5.92;100.00
49102;BME280;34913;47.520;19.186;2023-04-16T02:31:28;99613.25;;;5.99;100.00
49102;BME280;34913;47.520;19.186;2023-04-16T02:33:54;99616.66;;;6.01;100.00
49102;BME280;34913;47.520;19.186;2023-04-16T02:36:20;99612.59;;;6.08;100.00
49102;BME280;34913;47.520;19.186;2023-04-16T02:38:45;99620.19;;;6.12;100.00
49102;BME280;34913;47.520;19.186;2023-04-16T02:41:11;99613.13;;;6.13;100.00
49102;BME280;34913;47.520;19.186;2023-04-16T02:43:36;99613.88;;;6.15;100.00
49102;BME280;34913;47.520;19.186;2023-04-16T02:46:02;99608.06;;;6.23;100.00
49102;BME280;34913;47.520;19.186;2023-04-16T02:48:27;99607.22;;;6.22;100.00
49102;BME280;34913;47.520;19.186;2023-04-16T02:50:53;99601.53;;;6.15;100.00
49102;BME280;34913;47.520;19.186;2023-04-16T02:53:19;99607.88;;;6.13;100.00
49102;BME280;34913;47.520;19.186;2023-04-16T02:55:51;99611.03;;;6.18;100.00
49102;BME280;34913;47.520;19.186;2023-04-16T02:58:18;99607.22;;;6.22;100.00
49102;BME280;34913;47.520;19.186;2023-04-16T03:00:44;99610.91;;;6.20;100.00
49102;BME280;34913;47.520;19.186;2023-04-16T03:03:10;99600.81;;;6.13;100.00
49102;BME280;34913;47.520;19.186;2023-04-16T03:05:35;99607.16;;;6.11;100.00
49102;BME280;34913;47.520;19.186;2023-04-16T03:08:02;99609.97;;;6.08;100.00
49102;BME280;34913;47.520;19.186;2023-04-16T03:10:28;99609.25;;;6.06;100.00
49102;BME280;34913;47.520;19.186;2023-04-16T03:12:53;99613.47;;;6.08;100.00
49102;BME280;34913;47.520;19.186;2023-04-16T03:15:19;99610.19;;;6.05;100.00
49102;BME280;34913;47.520;19.186;2023-04-16T03:17:44;99610.63;;;5.99;100.00
49102;BME280;34913;47.520;19.186;2023-04-16T03:20:10;99610.97;;;5.94;100.00
49102;BME280;34913;47.520;19.186;2023-04-16T03:22:37;99618.09;;;5.92;100.00
49102;BME280;34913;47.520;19.186;2023-04-16T03:25:02;99621.28;;;5.97;100.00
49102;BME280;34913;47.520;19.186;2023-04-16T03:27:28;99632.97;;;6.06;100.00
49102;BME280;34913;47.520;19.186;2023-04-16T03:29:53;99643.06;;;5.99;100.00
49102;BME280;34913;47.520;19.186;2023-04-16T03:32:19;99646.16;;;5.93;100.00
49102;BME280;34913;47.520;19.186;2023-04-16T03:34:44;99655.84;;;5.93;100.00
49102;BME280;34913;47.520;19.186;2023-04-16T03:37:10;99655.28;;;5.87;100.00
49102;BME280;34913;47.520;19.186;2023-04-16T03:39:36;99659.59;;;5.88;100.00
49102;BME280;34913;47.520;19.186;2023-04-16T03:42:02;99667.00;;;5.96;100.00
49102;BME280;34913;47.520;19.186;2023-04-16T03:44:28;99668.06;;;5.94;100.00
49102;BME280;34913;47.520;19.186;2023-04-16T03:46:54;99676.66;;;5.83;99.01
49102;BME280;34913;47.520;19.186;2023-04-16T03:49:20;99676.22;;;5.76;99.63
49102;BME280;34913;47.520;19.186;2023-04-16T03:51:45;99676.63;;;5.57;99.61
49102;BME280;34913;47.520;19.186;2023-04-16T03:54:11;99675.16;;;5.53;100.00
49102;BME280;34913;47.520;19.186;2023-04-16T03:56:36;99683.06;;;5.53;100.00
49102;BME280;34913;47.520;19.186;2023-04-16T03:59:03;99676.53;;;5.59;100.00
49102;BME280;34913;47.520;19.186;2023-04-16T04:01:29;99681.06;;;5.57;100.00
49102;BME280;34913;47.520;19.186;2023-04-16T04:03:54;99683.16;;;5.52;100.00
49102;BME280;34913;47.520;19.186;2023-04-16T04:06:20;99685.38;;;5.58;100.00
49102;BME280;34913;47.520;19.186;2023-04-16T04:08:45;99682.56;;;5.61;100.00
49102;BME280;34913;47.520;19.186;2023-04-16T04:11:11;99683.81;;;5.55;100.00
49102;BME280;34913;47.520;19.186;2023-04-16T04:13:36;99672.09;;;5.59;100.00
49102;BME280;34913;47.520;19.186;2023-04-16T04:16:01;99667.09;;;5.69;100.00
49102;BME280;34913;47.520;19.186;2023-04-16T04:18:27;99667.69;;;5.73;100.00
49102;BME280;34913;47.520;19.186;2023-04-16T04:20:52;99677.19;;;5.75;100.00
49102;BME280;34913;47.520;19.186;2023-04-16T04:23:18;99684.22;;;5.75;100.00
49102;BME280;34913;47.520;19.186;2023-04-16T04:25:43;99685.50;;;5.82;100.00
49102;BME280;34913;47.520;19.186;2023-04-16T04:28:09;99686.59;;;5.92;100.00
49102;BME280;34913;47.520;19.186;2023-04-16T04:30:34;99694.19;;;5.97;100.00
49102;BME280;34913;47.520;19.186;2023-04-16T04:33:00;99703.06;;;6.08;100.00
49102;BME280;34913;47.520;19.186;2023-04-16T04:35:25;99698.00;;;6.18;100.00
49102;BME280;34913;47.520;19.186;2023-04-16T04:37:51;99703.69;;;6.25;100.00
49102;BME280;34913;47.520;19.186;2023-04-16T04:40:16;99694.59;;;6.29;100.00
49102;BME280;34913;47.520;19.186;2023-04-16T04:42:41;99692.81;;;6.29;100.00
49102;BME280;34913;47.520;19.186;2023-04-16T04:45:08;99691.13;;;6.28;100.00
49102;BME280;34913;47.520;19.186;2023-04-16T04:47:33;99700.22;;;6.24;100.00
49102;BME280;34913;47.520;19.186;2023-04-16T04:49:59;99708.13;;;6.24;100.00
49102;BME280;34913;47.520;19.186;2023-04-16T04:52:24;99705.97;;;6.29;100.00
49102;BME280;34913;47.520;19.186;2023-04-16T04:54:50;99716.09;;;6.35;100.00
49102;BME280;34913;47.520;19.186;2023-04-16T04:57:15;99713.47;;;6.35;100.00
49102;BME280;34913;47.520;19.186;2023-04-16T04:59:40;99707.66;;;6.43;100.00
49102;BME280;34913;47.520;19.186;2023-04-16T05:02:06;99713.97;;;6.53;100.00
49102;BME280;34913;47.520;19.186;2023-04-16T05:04:31;99712.88;;;6.68;100.00
49102;BME280;34913;47.520;19.186;2023-04-16T05:06:57;99721.53;;;6.70;100.00
49102;BME280;34913;47.520;19.186;2023-04-16T05:09:22;99724.63;;;6.64;100.00
49102;BME280;34913;47.520;19.186;2023-04-16T05:11:48;99720.19;;;6.65;100.00
49102;BME280;34913;47.520;19.186;2023-04-16T05:14:13;99713.13;;;6.65;100.00
49102;BME280;34913;47.520;19.186;2023-04-16T05:16:39;99708.25;;;6.72;100.00
49102;BME280;34913;47.520;19.186;2023-04-16T05:19:04;99704.44;;;6.76;100.00
49102;BME280;34913;47.520;19.186;2023-04-16T05:21:30;99701.56;;;6.79;100.00
49102;BME280;34913;47.520;19.186;2023-04-16T05:23:55;99703.03;;;6.83;100.00
49102;BME280;34913;47.520;19.186;2023-04-16T05:26:20;99713.06;;;6.78;100.00
49102;BME280;34913;47.520;19.186;2023-04-16T05:28:47;99710.84;;;6.85;100.00
49102;BME280;34913;47.520;19.186;2023-04-16T05:31:12;99720.66;;;6.83;100.00
49102;BME280;34913;47.520;19.186;2023-04-16T05:33:38;99733.53;;;6.87;100.00
49102;BME280;34913;47.520;19.186;2023-04-16T05:36:03;99738.91;;;6.86;100.00
49102;BME280;34913;47.520;19.186;2023-04-16T05:38:29;99742.59;;;6.83;100.00
49102;BME280;34913;47.520;19.186;2023-04-16T05:40:55;99744.09;;;6.87;100.00
49102;BME280;34913;47.520;19.186;2023-04-16T05:43:20;99749.53;;;6.97;100.00
49102;BME280;34913;47.520;19.186;2023-04-16T05:45:45;99746.69;;;7.00;100.00
49102;BME280;34913;47.520;19.186;2023-04-16T05:48:11;99742.88;;;7.04;100.00
49102;BME280;34913;47.520;19.186;2023-04-16T05:50:38;99747.19;;;7.05;100.00
49102;BME280;34913;47.520;19.186;2023-04-16T05:53:05;99747.59;;;7.12;100.00
49102;BME280;34913;47.520;19.186;2023-04-16T05:55:30;99748.75;;;7.08;100.00
49102;BME280;34913;47.520;19.186;2023-04-16T05:57:56;99755.97;;;6.93;100.00
49102;BME280;34913;47.520;19.186;2023-04-16T06:00:22;99761.50;;;6.90;100.00
49102;BME280;34913;47.520;19.186;2023-04-16T06:02:47;99757.22;;;7.00;100.00
49102;BME280;34913;47.520;19.186;2023-04-16T06:05:13;99761.53;;;7.14;100.00
49102;BME280;34913;47.520;19.186;2023-04-16T06:07:38;99757.66;;;7.31;100.00
49102;BME280;34913;47.520;19.186;2023-04-16T06:10:04;99760.34;;;7.42;100.00
49102;BME280;34913;47.520;19.186;2023-04-16T06:12:30;99755.03;;;7.54;100.00
49102;BME280;34913;47.520;19.186;2023-04-16T06:14:55;99745.13;;;7.69;100.00
49102;BME280;34913;47.520;19.186;2023-04-16T06:17:21;99742.50;;;7.80;100.00
49102;BME280;34913;47.520;19.186;2023-04-16T06:19:46;99750.00;;;7.98;100.00
49102;BME280;34913;47.520;19.186;2023-04-16T06:22:12;99746.41;;;7.99;99.98
49102;BME280;34913;47.520;19.186;2023-04-16T06:24:37;99749.81;;;8.23;98.64
49102;BME280;34913;47.520;19.186;2023-04-16T06:27:03;99743.00;;;8.43;98.00
49102;BME280;34913;47.520;19.186;2023-04-16T06:29:28;99750.84;;;8.56;96.17
49102;BME280;34913;47.520;19.186;2023-04-16T06:31:54;99747.25;;;8.57;96.35
49102;BME280;34913;47.520;19.186;2023-04-16T06:34:19;99741.47;;;8.63;96.29
49102;BME280;34913;47.520;19.186;2023-04-16T06:36:45;99733.03;;;8.80;94.87
49102;BME280;34913;47.520;19.186;2023-04-16T06:39:10;99726.44;;;8.86;94.73
49102;BME280;34913;47.520;19.186;2023-04-16T06:41:36;99731.19;;;8.92;93.86
49102;BME280;34913;47.520;19.186;2023-04-16T06:44:01;99739.09;;;9.14;94.19
49102;BME280;34913;47.520;19.186;2023-04-16T06:46:27;99730.47;;;9.12;93.04
49102;BME280;34913;47.520;19.186;2023-04-16T06:48:52;99732.84;;;9.15;92.92
49102;BME280;34913;47.520;19.186;2023-04-16T06:51:17;99735.63;;;9.25;93.22
49102;BME280;34913;47.520;19.186;2023-04-16T06:53:43;99733.66;;;9.27;91.46
49102;BME280;34913;47.520;19.186;2023-04-16T06:56:08;99726.88;;;9.45;92.27
49102;BME280;34913;47.520;19.186;2023-04-16T06:58:34;99729.69;;;9.65;90.88
49102;BME280;34913;47.520;19.186;2023-04-16T07:01:00;99739.13;;;9.78;90.52
49102;BME280;34913;47.520;19.186;2023-04-16T07:03:26;99739.84;;;10.01;90.21
49102;BME280;34913;47.520;19.186;2023-04-16T07:05:52;99745.88;;;10.03;89.40
49102;BME280;34913;47.520;19.186;2023-04-16T07:08:17;99748.28;;;10.27;87.21
49102;BME280;34913;47.520;19.186;2023-04-16T07:10:43;99744.41;;;10.31;87.08
49102;BME280;34913;47.520;19.186;2023-04-16T07:13:09;99743.59;;;10.41;86.32
49102;BME280;34913;47.520;19.186;2023-04-16T07:15:35;99736.41;;;10.52;85.89
49102;BME280;34913;47.520;19.186;2023-04-16T07:18:01;99749.19;;;10.68;85.28
49102;BME280;34913;47.520;19.186;2023-04-16T07:20:26;99749.03;;;11.10;83.74
49102;BME280;34913;47.520;19.186;2023-04-16T07:22:52;99756.25;;;11.38;82.44
49102;BME280;34913;47.520;19.186;2023-04-16T07:25:17;99746.59;;;11.57;82.04
49102;BME280;34913;47.520;19.186;2023-04-16T07:27:43;99749.84;;;11.89;80.05
49102;BME280;34913;47.520;19.186;2023-04-16T07:30:08;99756.00;;;11.90;78.22
49102;BME280;34913;47.520;19.186;2023-04-16T07:32:34;99745.63;;;11.96;78.06
49102;BME280;34913;47.520;19.186;2023-04-16T07:35:00;99745.63;;;11.96;78.44
49102;BME280;34913;47.520;19.186;2023-04-16T07:37:25;99742.25;;;11.65;79.37
49102;BME280;34913;47.520;19.186;2023-04-16T07:39:50;99749.66;;;11.33;81.66
49102;BME280;34913;47.520;19.186;2023-04-16T07:42:16;99747.69;;;11.35;81.45
49102;BME280;34913;47.520;19.186;2023-04-16T07:44:42;99748.13;;;11.69;80.56
49102;BME280;34913;47.520;19.186;2023-04-16T07:47:08;99743.56;;;11.81;80.62
49102;BME280;34913;47.520;19.186;2023-04-16T07:49:33;99745.88;;;12.22;79.24
49102;BME280;34913;47.520;19.186;2023-04-16T07:51:59;99742.63;;;12.28;77.98
49102;BME280;34913;47.520;19.186;2023-04-16T07:54:24;99753.41;;;12.37;77.93
49102;BME280;34913;47.520;19.186;2023-04-16T07:56:50;99745.59;;;12.63;77.96
49102;BME280;34913;47.520;19.186;2023-04-16T07:59:16;99742.31;;;12.78;75.55
49102;BME280;34913;47.520;19.186;2023-04-16T08:01:41;99749.41;;;12.97;75.78
49102;BME280;34913;47.520;19.186;2023-04-16T08:04:07;99741.50;;;13.05;74.95
49102;BME280;34913;47.520;19.186;2023-04-16T08:06:32;99739.38;;;13.09;74.00
49102;BME280;34913;47.520;19.186;2023-04-16T08:08:58;99746.84;;;13.05;74.49
49102;BME280;34913;47.520;19.186;2023-04-16T08:11:23;99736.72;;;12.81;74.82
49102;BME280;34913;47.520;19.186;2023-04-16T08:13:48;99735.09;;;12.98;75.40
49102;BME280;34913;47.520;19.186;2023-04-16T08:16:14;99731.06;;;13.22;74.89
49102;BME280;34913;47.520;19.186;2023-04-16T08:18:40;99740.47;;;13.44;74.83
49102;BME280;34913;47.520;19.186;2023-04-16T08:21:05;99741.22;;;13.36;74.20
49102;BME280;34913;47.520;19.186;2023-04-16T08:23:31;99741.13;;;13.46;73.81
49102;BME280;34913;47.520;19.186;2023-04-16T08:25:56;99747.22;;;13.74;73.64
49102;BME280;34913;47.520;19.186;2023-04-16T08:28:22;99740.81;;;14.02;70.75
49102;BME280;34913;47.520;19.186;2023-04-16T08:30:47;99747.47;;;14.24;69.42
49102;BME280;34913;47.520;19.186;2023-04-16T08:33:13;99748.75;;;14.20;70.77
49102;BME280;34913;47.520;19.186;2023-04-16T08:35:38;99754.66;;;14.06;70.83
49102;BME280;34913;47.520;19.186;2023-04-16T08:38:05;99752.06;;;14.14;70.21
49102;BME280;34913;47.520;19.186;2023-04-16T08:40:34;99758.00;;;14.25;71.52
49102;BME280;34913;47.520;19.186;2023-04-16T08:43:04;99757.69;;;14.46;69.83
49102;BME280;34913;47.520;19.186;2023-04-16T08:45:32;99767.94;;;14.15;69.07
49102;BME280;34913;47.520;19.186;2023-04-16T08:47:59;99758.03;;;14.34;70.79
49102;BME280;34913;47.520;19.186;2023-04-16T08:50:26;99756.09;;;14.18;71.00
49102;BME280;34913;47.520;19.186;2023-04-16T08:53:04;99758.22;;;14.32;71.01
49102;BME280;34913;47.520;19.186;2023-04-16T08:55:44;99760.25;;;14.38;70.85
49102;BME280;34913;47.520;19.186;2023-04-16T08:58:14;99766.09;;;14.42;69.26
49102;BME280;34913;47.520;19.186;2023-04-16T09:00:42;99772.75;;;14.56;66.96
49102;BME280;34913;47.520;19.186;2023-04-16T09:03:10;99766.66;;;14.45;66.99
49102;BME280;34913;47.520;19.186;2023-04-16T09:05:36;99772.91;;;14.36;67.48
49102;BME280;34913;47.520;19.186;2023-04-16T09:08:03;99779.41;;;14.34;67.01
49102;BME280;34913;47.520;19.186;2023-04-16T09:10:30;99782.63;;;14.19;68.54
49102;BME280;34913;47.520;19.186;2023-04-16T09:12:56;99776.34;;;14.29;69.85
49102;BME280;34913;47.520;19.186;2023-04-16T09:15:22;99781.13;;;14.43;69.82
49102;BME280;34913;47.520;19.186;2023-04-16T09:17:48;99785.44;;;14.54;68.64
49102;BME280;34913;47.520;19.186;2023-04-16T09:20:13;99779.66;;;14.22;69.86
49102;BME280;34913;47.520;19.186;2023-04-16T09:22:39;99779.66;;;14.22;70.77
49102;BME280;34913;47.520;19.186;2023-04-16T09:25:06;99782.75;;;14.36;70.40
49102;BME280;34913;47.520;19.186;2023-04-16T09:27:31;99783.38;;;14.30;70.15
49102;BME280;34913;47.520;19.186;2023-04-16T09:29:57;99782.28;;;14.40;70.20
49102;BME280;34913;47.520;19.186;2023-04-16T09:32:27;99788.25;;;14.34;69.98
49102;BME280;34913;47.520;19.186;2023-04-16T09:34:58;99787.44;;;14.60;68.24
49102;BME280;34913;47.520;19.186;2023-04-16T09:37:25;99788.28;;;14.60;70.00
49102;BME280;34913;47.520;19.186;2023-04-16T09:40:02;99790.38;;;14.74;69.25
49102;BME280;34913;47.520;19.186;2023-04-16T09:42:32;99800.47;;;14.89;66.73
49102;BME280;34913;47.520;19.186;2023-04-16T09:44:58;99798.50;;;14.99;67.28
49102;BME280;34913;47.520;19.186;2023-04-16T09:47:44;99802.91;;;15.08;68.56
49102;BME280;34913;47.520;19.186;2023-04-16T09:50:16;99800.53;;;14.97;66.27
49102;BME280;34913;47.520;19.186;2023-04-16T09:52:44;99803.47;;;14.86;66.44
49102;BME280;34913;47.520;19.186;2023-04-16T09:55:10;99800.75;;;15.12;66.13
49102;BME280;34913;47.520;19.186;2023-04-16T09:57:36;99796.66;;;15.33;64.83
49102;BME280;34913;47.520;19.186;2023-04-16T10:00:05;99802.75;;;15.60;60.11
49102;BME280;34913;47.520;19.186;2023-04-16T10:02:32;99802.97;;;15.67;60.37
49102;BME280;34913;47.520;19.186;2023-04-16T10:05:00;99797.84;;;15.47;57.30
49102;BME280;34913;47.520;19.186;2023-04-16T10:07:27;99802.53;;;15.45;59.73
49102;BME280;34913;47.520;19.186;2023-04-16T10:09:53;99799.03;;;15.45;58.06
49102;BME280;34913;47.520;19.186;2023-04-16T10:12:20;99794.84;;;15.42;58.42
49102;BME280;34913;47.520;19.186;2023-04-16T10:14:45;99802.03;;;15.33;57.76
49102;BME280;34913;47.520;19.186;2023-04-16T10:17:11;99790.63;;;15.31;57.15
49102;BME280;34913;47.520;19.186;2023-04-16T10:19:37;99791.88;;;15.03;57.99
49102;BME280;34913;47.520;19.186;2023-04-16T10:22:03;99780.03;;;15.14;58.33
49102;BME280;34913;47.520;19.186;2023-04-16T10:24:29;99783.13;;;15.35;60.16
49102;BME280;34913;47.520;19.186;2023-04-16T10:26:56;99785.03;;;15.59;59.35
49102;BME280;34913;47.520;19.186;2023-04-16T10:29:22;99795.41;;;15.62;60.23
49102;BME280;34913;47.520;19.186;2023-04-16T10:31:50;99795.31;;;15.88;59.29
49102;BME280;34913;47.520;19.186;2023-04-16T10:34:16;99780.94;;;16.22;59.62
49102;BME280;34913;47.520;19.186;2023-04-16T10:36:47;99776.59;;;16.21;60.10
49102;BME280;34913;47.520;19.186;2023-04-16T10:39:17;99773.38;;;16.17;57.92
49102;BME280;34913;47.520;19.186;2023-04-16T10:41:44;99774.41;;;16.24;55.81
49102;BME280;34913;47.520;19.186;2023-04-16T10:44:09;99764.16;;;16.44;55.87
49102;BME280;34913;47.520;19.186;2023-04-16T10:46:40;99767.66;;;16.61;53.74
49102;BME280;34913;47.520;19.186;2023-04-16T10:49:15;99766.97;;;16.75;55.33
49102;BME280;34913;47.520;19.186;2023-04-16T10:51:54;99759.22;;;16.88;53.70
49102;BME280;34913;47.520;19.186;2023-04-16T10:54:23;99757.25;;;16.74;51.55
49102;BME280;34913;47.520;19.186;2023-04-16T10:56:50;99760.97;;;17.12;53.67
49102;BME280;34913;47.520;19.186;2023-04-16T10:59:20;99754.88;;;16.87;53.07
49102;BME280;34913;47.520;19.186;2023-04-16T11:01:51;99749.78;;;17.00;52.32
49102;BME280;34913;47.520;19.186;2023-04-16T11:07:17;99754.28;;;17.08;51.24
49102;BME280;34913;47.520;19.186;2023-04-16T11:10:13;99760.31;;;17.41;48.75
49102;BME280;34913;47.520;19.186;2023-04-16T11:12:41;99758.03;;;16.99;48.81
49102;BME280;34913;47.520;19.186;2023-04-16T11:15:14;99751.38;;;17.18;49.16
49102;BME280;34913;47.520;19.186;2023-04-16T11:20:29;99761.31;;;17.09;48.67
49102;BME280;34913;47.520;19.186;2023-04-16T11:22:56;99753.22;;;16.78;49.70
49102;BME280;34913;47.520;19.186;2023-04-16T11:25:29;99765.63;;;16.79;48.88
49102;BME280;34913;47.520;19.186;2023-04-16T11:27:56;99754.59;;;17.13;50.66
49102;BME280;34913;47.520;19.186;2023-04-16T11:30:36;99751.31;;;17.34;48.10
49102;BME280;34913;47.520;19.186;2023-04-16T11:33:09;99752.09;;;17.43;48.88
49102;BME280;34913;47.520;19.186;2023-04-16T11:35:38;99752.06;;;17.12;46.11
49102;BME280;34913;47.520;19.186;2023-04-16T11:38:04;99751.94;;;17.36;47.14
49102;BME280;34913;47.520;19.186;2023-04-16T11:40:33;99751.25;;;17.42;50.24
49102;BME280;34913;47.520;19.186;2023-04-16T11:43:11;99749.00;;;17.54;49.81
49102;BME280;34913;47.520;19.186;2023-04-16T11:45:37;99736.72;;;17.59;47.74
49102;BME280;34913;47.520;19.186;2023-04-16T11:48:03;99741.25;;;17.59;49.88
49102;BME280;34913;47.520;19.186;2023-04-16T11:50:28;99742.28;;;17.27;46.61
49102;BME280;34913;47.520;19.186;2023-04-16T11:52:55;99737.78;;;17.50;46.56
49102;BME280;34913;47.520;19.186;2023-04-16T11:55:22;99735.25;;;17.80;47.18
49102;BME280;34913;47.520;19.186;2023-04-16T11:57:48;99738.19;;;17.93;48.71
49102;BME280;34913;47.520;19.186;2023-04-16T12:00:15;99728.41;;;18.15;46.72
49102;BME280;34913;47.520;19.186;2023-04-16T12:02:45;99733.03;;;17.83;48.74
49102;BME280;34913;47.520;19.186;2023-04-16T12:05:34;99735.22;;;17.57;48.98
49102;BME280;34913;47.520;19.186;2023-04-16T12:08:01;99733.78;;;17.69;48.37
49102;BME280;34913;47.520;19.186;2023-04-16T12:10:28;99724.25;;;17.44;47.26
49102;BME280;34913;47.520;19.186;2023-04-16T12:12:54;99726.69;;;17.30;48.53
49102;BME280;34913;47.520;19.186;2023-04-16T12:15:20;99730.81;;;17.41;50.50
49102;BME280;34913;47.520;19.186;2023-04-16T12:17:45;99727.56;;;17.23;51.44
49102;BME280;34913;47.520;19.186;2023-04-16T12:20:13;99719.03;;;17.19;51.44
49102;BME280;34913;47.520;19.186;2023-04-16T12:22:46;99724.44;;;17.11;52.00
49102;BME280;34913;47.520;19.186;2023-04-16T12:25:14;99720.44;;;17.07;52.14
49102;BME280;34913;47.520;19.186;2023-04-16T12:27:51;99723.59;;;17.11;51.27
49102;BME280;34913;47.520;19.186;2023-04-16T12:30:24;99712.00;;;16.79;46.77
49102;BME280;34913;47.520;19.186;2023-04-16T12:32:52;99710.78;;;16.90;45.99
49102;BME280;34913;47.520;19.186;2023-04-16T12:35:32;99715.19;;;17.14;45.65
49102;BME280;34913;47.520;19.186;2023-04-16T12:37:58;99716.56;;;17.10;44.52
49102;BME280;34913;47.520;19.186;2023-04-16T12:40:24;99706.44;;;17.20;44.55
49102;BME280;34913;47.520;19.186;2023-04-16T12:42:49;99711.09;;;16.95;42.70
49102;BME280;34913;47.520;19.186;2023-04-16T12:45:15;99701.16;;;17.03;45.00
49102;BME280;34913;47.520;19.186;2023-04-16T12:47:41;99705.59;;;17.19;44.37
49102;BME280;34913;47.520;19.186;2023-04-16T12:50:06;99699.69;;;17.32;44.19
49102;BME280;34913;47.520;19.186;2023-04-16T12:52:33;99700.31;;;17.34;43.36